Time;durP1;ratioP1;P1;durP2;ratioP2;P2;SDS_P1;SDS_P2;PMS_P1;PMS_P2;Temp;Humidity;BMP_temperature;BMP_pressure;BME280_temperature;BME280_humidity;BME280_pressure;Samples;Min_cycle;Max_cycle;Signal;HPM_P1;HPM_P2
2022/04/09 00:01:52;;;;;;;0.90;0.90;;;1.70;99.90;;;;;;5139516;27;20205;-70
2022/04/09 00:04:19;;;;;;;0.98;0.90;;;1.80;99.90;;;;;;5121568;27;20201;-70
2022/04/09 00:06:45;;;;;;;1.65;1.23;;;1.80;99.90;;;;;;5104922;27;20222;-71
2022/04/09 00:09:12;;;;;;;0.80;0.80;;;1.80;99.90;;;;;;5121799;27;20264;-71
2022/04/09 00:11:38;;;;;;;0.88;0.85;;;1.70;99.90;;;;;;5105003;27;20653;-71
2022/04/09 00:14:05;;;;;;;1.10;0.90;;;1.70;99.90;;;;;;5139285;27;20657;-71
2022/04/09 00:16:32;;;;;;;0.75;0.75;;;1.70;99.90;;;;;;5138729;27;20205;-71
2022/04/09 00:18:59;;;;;;;1.15;1.05;;;1.60;99.90;;;;;;5138908;27;20202;-71
2022/04/09 00:21:28;;;;;;;0.80;0.80;;;1.60;99.90;;;;;;5120437;27;20198;-71
2022/04/09 00:23:54;;;;;;;0.93;0.93;;;1.60;99.90;;;;;;5139560;27;20281;-71
2022/04/09 00:26:21;;;;;;;0.90;0.90;;;1.60;99.90;;;;;;5137735;27;20201;-71
2022/04/09 00:28:47;;;;;;;0.80;0.80;;;1.60;99.90;;;;;;5119988;28;20198;-71
2022/04/09 00:31:13;;;;;;;1.02;0.93;;;1.60;99.90;;;;;;5138554;27;20194;-71
2022/04/09 00:33:40;;;;;;;1.30;1.05;;;1.50;99.90;;;;;;5137243;27;20198;-71
2022/04/09 00:36:07;;;;;;;0.90;0.90;;;1.50;99.90;;;;;;5137087;27;20222;-71
2022/04/09 00:38:33;;;;;;;0.90;0.90;;;1.50;99.90;;;;;;5119471;27;20194;-71
2022/04/09 00:41:00;;;;;;;0.90;0.90;;;1.40;99.90;;;;;;5137838;27;20193;-71
2022/04/09 00:43:26;;;;;;;1.20;0.98;;;1.40;99.90;;;;;;5137679;28;20650;-71
2022/04/09 00:45:52;;;;;;;1.10;1.05;;;1.40;99.90;;;;;;5119017;28;20649;-71
2022/04/09 00:48:22;;;;;;;1.13;1.02;;;1.40;99.90;;;;;;5119917;28;20293;-71
2022/04/09 00:50:49;;;;;;;1.02;0.93;;;1.40;99.90;;;;;;5119522;28;20213;-71
2022/04/09 00:53:16;;;;;;;1.70;1.05;;;1.40;99.90;;;;;;5118953;28;20205;-70
2022/04/09 00:58:57;;;;;;;1.10;1.00;;;1.40;99.90;;;;;;5138830;28;20193;-71
2022/04/09 01:01:26;;;;;;;1.02;0.95;;;1.50;99.90;;;;;;5137995;28;20743;-75
2022/04/09 01:03:53;;;;;;;1.30;1.20;;;1.60;99.90;;;;;;5135967;28;20198;-74
2022/04/09 01:06:20;;;;;;;1.20;1.10;;;1.60;99.90;;;;;;5116985;28;20717;-75
2022/04/09 01:08:47;;;;;;;1.00;1.00;;;1.70;99.90;;;;;;5135676;28;20239;-75
2022/04/09 01:11:14;;;;;;;1.70;1.60;;;1.80;99.90;;;;;;5135430;28;20556;-75
2022/04/09 01:13:44;;;;;;;1.60;1.50;;;1.80;99.90;;;;;;5134784;28;20206;-75
2022/04/09 01:16:11;;;;;;;1.52;1.42;;;1.90;99.90;;;;;;5134364;28;20229;-72
2022/04/09 01:18:37;;;;;;;1.58;1.45;;;1.90;99.90;;;;;;5134713;28;20202;-72
2022/04/09 01:21:04;;;;;;;1.20;1.10;;;1.90;99.90;;;;;;5134143;28;20202;-73
2022/04/09 01:23:31;;;;;;;3.33;1.83;;;1.90;99.90;;;;;;5134669;28;20202;-73
2022/04/09 01:26:01;;;;;;;1.80;1.70;;;1.90;99.90;;;;;;5134676;28;20198;-72
2022/04/09 01:28:28;;;;;;;1.60;1.50;;;2.00;99.90;;;;;;5116258;28;20205;-70
2022/04/09 01:30:54;;;;;;;2.85;1.45;;;2.00;99.90;;;;;;5137903;28;20204;-69
2022/04/09 01:33:21;;;;;;;2.10;1.83;;;2.10;99.90;;;;;;5137742;28;20212;-71
2022/04/09 01:35:49;;;;;;;2.05;1.83;;;2.10;99.90;;;;;;5139036;28;20214;-71
2022/04/09 01:38:16;;;;;;;3.38;1.88;;;2.20;99.90;;;;;;5137325;28;20289;-71
2022/04/09 01:40:42;;;;;;;2.75;2.55;;;2.20;99.90;;;;;;5137166;28;20200;-72
2022/04/09 01:43:09;;;;;;;2.35;2.22;;;2.20;99.90;;;;;;5137324;28;20585;-72
2022/04/09 01:45:36;;;;;;;2.42;2.17;;;2.20;99.90;;;;;;5137616;28;20281;-70
2022/04/09 01:48:03;;;;;;;6.15;3.45;;;2.20;99.90;;;;;;5119679;27;20194;-70
2022/04/09 01:50:32;;;;;;;2.78;2.55;;;2.20;99.90;;;;;;5141236;27;20653;-70
2022/04/09 01:52:59;;;;;;;3.53;3.10;;;2.20;99.90;;;;;;5142414;27;20197;-70
2022/04/09 01:55:26;;;;;;;5.20;2.33;;;2.20;99.90;;;;;;5140618;27;20225;-71
2022/04/09 01:57:52;;;;;;;4.97;2.88;;;2.20;99.90;;;;;;5141888;27;20202;-70
2022/04/09 02:00:19;;;;;;;3.10;2.90;;;2.20;99.90;;;;;;5140848;27;20208;-69
2022/04/09 02:02:45;;;;;;;3.13;2.83;;;2.20;99.90;;;;;;5122460;27;20190;-69
2022/04/09 02:05:13;;;;;;;4.45;3.10;;;2.20;99.90;;;;;;5104851;27;20548;-69
2022/04/09 02:07:41;;;;;;;2.70;2.60;;;2.20;99.90;;;;;;5142007;27;20553;-70
2022/04/09 02:10:08;;;;;;;5.35;3.88;;;2.20;99.90;;;;;;5140379;27;20289;-69
2022/04/09 02:12:35;;;;;;;4.78;3.90;;;2.20;99.90;;;;;;5140286;27;20280;-70
2022/04/09 02:15:03;;;;;;;3.47;3.17;;;2.20;99.90;;;;;;5140531;27;20217;-71
2022/04/09 02:17:30;;;;;;;4.28;3.85;;;2.20;99.90;;;;;;5141494;27;20670;-70
2022/04/09 02:19:56;;;;;;;4.07;3.67;;;2.30;99.90;;;;;;5141917;27;20308;-69
2022/04/09 02:22:23;;;;;;;6.80;4.70;;;2.30;99.90;;;;;;5140827;27;20659;-70
2022/04/09 02:24:50;;;;;;;5.63;3.72;;;2.30;99.90;;;;;;5140595;27;20676;-70
2022/04/09 02:27:16;;;;;;;6.00;4.10;;;2.30;99.90;;;;;;5140805;27;20198;-70
2022/04/09 02:29:42;;;;;;;6.70;4.82;;;2.30;99.90;;;;;;5140971;27;20563;-70
2022/04/09 02:32:09;;;;;;;4.93;4.53;;;2.30;99.90;;;;;;5123377;27;20205;-70
2022/04/09 02:34:36;;;;;;;5.63;5.13;;;2.20;99.90;;;;;;5140696;27;20220;-70
2022/04/09 02:37:05;;;;;;;4.97;4.03;;;2.20;99.90;;;;;;5140015;27;20203;-69
2022/04/09 02:39:31;;;;;;;5.20;4.70;;;2.20;99.90;;;;;;5140205;27;20202;-69
2022/04/09 02:41:58;;;;;;;5.78;5.28;;;2.20;99.90;;;;;;5140902;27;20197;-69
2022/04/09 02:44:24;;;;;;;5.35;4.85;;;2.20;99.90;;;;;;5121577;27;20221;-69
2022/04/09 02:46:51;;;;;;;7.50;4.93;;;2.20;99.90;;;;;;5121235;27;20202;-69
2022/04/09 02:49:18;;;;;;;7.50;6.78;;;2.20;99.90;;;;;;5139834;27;20214;-69
2022/04/09 02:51:44;;;;;;;6.07;5.43;;;2.20;99.90;;;;;;5140133;27;20209;-69
2022/04/09 02:54:15;;;;;;;9.18;7.00;;;2.20;99.90;;;;;;5141431;27;20201;-70
2022/04/09 02:56:43;;;;;;;9.30;6.53;;;2.10;99.90;;;;;;5140003;27;20225;-69
2022/04/09 02:59:12;;;;;;;11.30;7.90;;;2.10;99.90;;;;;;5120937;27;20209;-71
2022/04/09 03:01:39;;;;;;;11.07;8.57;;;2.20;99.90;;;;;;5140228;27;20219;-70
2022/04/09 03:04:06;;;;;;;9.48;7.57;;;2.20;99.90;;;;;;5141160;27;20199;-70
2022/04/09 03:06:33;;;;;;;9.73;8.73;;;2.20;99.90;;;;;;5122195;27;20222;-70
2022/04/09 03:08:59;;;;;;;10.80;8.73;;;2.30;99.90;;;;;;5122133;27;20243;-69
2022/04/09 03:11:26;;;;;;;12.52;9.77;;;2.30;99.90;;;;;;5140061;27;20250;-70
2022/04/09 03:13:53;;;;;;;10.65;9.55;;;2.30;99.90;;;;;;5139700;27;20202;-69
2022/04/09 03:16:19;;;;;;;10.98;9.40;;;2.30;99.90;;;;;;5121643;27;20218;-69
2022/04/09 03:18:45;;;;;;;14.70;11.48;;;2.30;99.90;;;;;;5120639;27;20276;-70
2022/04/09 03:21:12;;;;;;;13.52;9.60;;;2.40;99.90;;;;;;5139679;27;20208;-69
2022/04/09 03:23:38;;;;;;;11.98;10.05;;;2.40;99.90;;;;;;5120772;27;20227;-69
2022/04/09 03:26:05;;;;;;;10.82;9.52;;;2.30;99.90;;;;;;5138827;27;20537;-69
2022/04/09 03:28:32;;;;;;;13.35;10.25;;;2.40;99.90;;;;;;5139673;27;20567;-69
2022/04/09 03:30:59;;;;;;;11.95;10.30;;;2.40;99.90;;;;;;5140342;27;20194;-69
2022/04/09 03:33:26;;;;;;;13.45;10.35;;;2.40;99.90;;;;;;5140429;27;20202;-69
2022/04/09 03:35:52;;;;;;;14.10;11.20;;;2.40;99.90;;;;;;5140455;27;20225;-69
2022/04/09 03:38:19;;;;;;;21.52;16.15;;;2.40;99.90;;;;;;5139295;27;20533;-69
2022/04/09 03:40:46;;;;;;;20.92;18.83;;;2.40;99.90;;;;;;5139768;27;20197;-70
2022/04/09 03:43:13;;;;;;;18.70;15.98;;;2.40;99.90;;;;;;5137955;27;20205;-70
2022/04/09 03:45:39;;;;;;;27.13;22.63;;;2.40;99.90;;;;;;5138920;27;20620;-70
2022/04/09 03:48:06;;;;;;;16.73;13.30;;;2.40;99.90;;;;;;5139288;27;20205;-69
2022/04/09 03:50:33;;;;;;;15.65;11.82;;;2.40;99.90;;;;;;5119034;27;20209;-70
2022/04/09 03:53:00;;;;;;;16.02;13.02;;;2.40;99.90;;;;;;5137926;27;20198;-70
2022/04/09 03:55:28;;;;;;;15.65;12.25;;;2.30;99.90;;;;;;5138328;27;20217;-70
2022/04/09 03:57:56;;;;;;;17.67;12.52;;;2.30;99.90;;;;;;5120375;27;20204;-70
2022/04/09 04:00:23;;;;;;;17.27;13.80;;;2.30;99.90;;;;;;5121429;27;20265;-69
2022/04/09 04:02:51;;;;;;;18.13;12.75;;;2.30;99.90;;;;;;5141341;27;20201;-70
2022/04/09 04:05:18;;;;;;;18.52;13.65;;;2.20;99.90;;;;;;5138575;27;20198;-69
2022/04/09 04:07:46;;;;;;;18.70;13.50;;;2.20;99.90;;;;;;5122786;27;20322;-71
2022/04/09 04:10:12;;;;;;;16.98;15.02;;;2.30;99.90;;;;;;5140050;27;20233;-70
2022/04/09 04:12:43;;;;;;;18.00;14.77;;;2.20;99.90;;;;;;5139632;27;20254;-70
2022/04/09 04:15:10;;;;;;;21.95;15.02;;;2.20;99.90;;;;;;5139201;27;20217;-70
2022/04/09 04:17:41;;;;;;;18.73;15.90;;;2.20;99.90;;;;;;5121544;27;20563;-70
2022/04/09 04:20:09;;;;;;;19.23;15.68;;;2.20;99.90;;;;;;5120319;27;20197;-70
2022/04/09 04:22:35;;;;;;;24.77;16.00;;;2.20;99.90;;;;;;5118890;27;20198;-70
2022/04/09 04:25:04;;;;;;;23.50;16.55;;;2.10;99.90;;;;;;5137212;27;20202;-70
2022/04/09 04:27:32;;;;;;;18.90;15.68;;;2.10;99.90;;;;;;5137049;27;20210;-70
2022/04/09 04:30:03;;;;;;;25.10;16.90;;;2.10;99.90;;;;;;5138034;27;20202;-70
2022/04/09 04:32:29;;;;;;;26.38;17.10;;;2.20;99.90;;;;;;5137098;27;20246;-70
2022/04/09 04:34:56;;;;;;;21.00;15.80;;;2.20;99.90;;;;;;5137004;27;20213;-70
2022/04/09 04:37:22;;;;;;;23.73;16.88;;;2.20;99.90;;;;;;5119905;27;20213;-70
2022/04/09 04:39:49;;;;;;;22.75;17.65;;;2.10;99.90;;;;;;5138993;27;20288;-70
2022/04/09 04:42:15;;;;;;;21.33;16.67;;;2.10;99.90;;;;;;5137369;27;20272;-70
2022/04/09 04:44:42;;;;;;;23.70;15.35;;;2.00;99.90;;;;;;5138996;27;20621;-70
2022/04/09 04:47:08;;;;;;;21.13;16.48;;;2.00;99.90;;;;;;5104687;27;20197;-70
2022/04/09 04:49:34;;;;;;;28.50;18.23;;;1.90;99.90;;;;;;5120866;28;20208;-70
2022/04/09 04:52:01;;;;;;;21.80;17.42;;;1.80;99.90;;;;;;5119299;28;20206;-70
2022/04/09 04:54:27;;;;;;;25.58;18.38;;;1.90;99.90;;;;;;5138554;28;20243;-70
2022/04/09 04:56:54;;;;;;;28.30;19.67;;;1.90;99.90;;;;;;5138440;28;20748;-70
2022/04/09 04:59:20;;;;;;;30.75;18.67;;;1.90;99.90;;;;;;5138553;28;20202;-71
2022/04/09 05:01:46;;;;;;;21.83;16.27;;;1.80;99.90;;;;;;5120133;28;20726;-70
2022/04/09 05:04:13;;;;;;;24.92;17.20;;;1.70;99.90;;;;;;5138877;28;20202;-70
2022/04/09 05:06:39;;;;;;;28.25;18.90;;;1.60;99.90;;;;;;5139094;27;20222;-71
2022/04/09 05:09:06;;;;;;;23.75;17.02;;;1.60;99.90;;;;;;5119040;28;20232;-71
2022/04/09 05:11:32;;;;;;;28.60;20.48;;;1.50;99.90;;;;;;5138140;28;20326;-71
2022/04/09 05:13:58;;;;;;;24.77;19.38;;;1.50;99.90;;;;;;5138813;28;20227;-70
2022/04/09 05:16:25;;;;;;;25.58;19.25;;;1.50;99.90;;;;;;5137873;28;20210;-71
2022/04/09 05:18:52;;;;;;;28.15;18.73;;;1.50;99.90;;;;;;5119340;28;20194;-71
2022/04/09 05:21:18;;;;;;;26.30;18.33;;;1.50;99.90;;;;;;5137894;28;20706;-71
2022/04/09 05:23:45;;;;;;;29.83;19.30;;;1.50;99.90;;;;;;5141177;27;20201;-71
2022/04/09 05:26:11;;;;;;;30.02;20.27;;;1.60;99.90;;;;;;5124044;27;20205;-71
2022/04/09 05:28:38;;;;;;;30.23;20.42;;;1.70;99.90;;;;;;5141763;27;20270;-71
2022/04/09 05:31:04;;;;;;;26.65;19.95;;;1.90;99.90;;;;;;5140638;27;20205;-70
2022/04/09 05:33:31;;;;;;;26.50;18.30;;;2.00;99.90;;;;;;5123105;27;20213;-71
2022/04/09 05:35:57;;;;;;;24.40;18.48;;;2.10;99.90;;;;;;5123697;27;20220;-70
2022/04/09 05:38:24;;;;;;;20.23;16.00;;;2.20;99.90;;;;;;5141788;27;20669;-71
2022/04/09 05:40:50;;;;;;;20.65;15.85;;;2.30;99.90;;;;;;5142131;27;20205;-71
2022/04/09 05:43:17;;;;;;;19.40;16.40;;;2.30;99.90;;;;;;5141902;27;20201;-70
2022/04/09 05:45:43;;;;;;;19.17;16.02;;;2.30;99.90;;;;;;5143030;27;20206;-71
2022/04/09 05:48:10;;;;;;;19.50;13.55;;;2.30;99.90;;;;;;5143262;27;20286;-70
2022/04/09 05:50:36;;;;;;;20.88;15.00;;;2.40;99.90;;;;;;5124391;27;20201;-70
2022/04/09 05:53:02;;;;;;;20.27;15.13;;;2.40;99.90;;;;;;5140690;27;20250;-70
2022/04/09 05:55:30;;;;;;;16.60;13.90;;;2.50;99.90;;;;;;5105505;27;20213;-71
2022/04/09 05:57:56;;;;;;;19.05;14.10;;;2.50;99.90;;;;;;5140935;27;20657;-70
2022/04/09 06:00:23;;;;;;;20.02;13.55;;;2.60;99.90;;;;;;5106123;27;20215;-70
2022/04/09 06:02:49;;;;;;;16.77;12.38;;;2.70;99.90;;;;;;5140219;27;20198;-71
2022/04/09 06:05:16;;;;;;;15.55;13.20;;;2.70;99.90;;;;;;5121963;27;20251;-70
2022/04/09 06:07:42;;;;;;;17.95;11.60;;;2.80;99.90;;;;;;5122643;27;20254;-71
2022/04/09 06:10:11;;;;;;;16.92;12.80;;;2.80;99.90;;;;;;5139392;27;20712;-70
2022/04/09 06:12:37;;;;;;;18.20;13.05;;;2.90;99.90;;;;;;5139944;27;20544;-71
2022/04/09 06:15:04;;;;;;;19.75;13.13;;;2.90;99.90;;;;;;5122352;27;20194;-71
2022/04/09 06:17:31;;;;;;;17.75;12.60;;;2.90;99.90;;;;;;5139811;27;20205;-71
2022/04/09 06:19:58;;;;;;;17.33;11.95;;;3.00;99.90;;;;;;5139097;27;20198;-71
2022/04/09 06:22:24;;;;;;;12.25;10.70;;;3.00;99.90;;;;;;5140245;27;20198;-71
2022/04/09 06:24:51;;;;;;;20.33;11.63;;;3.10;99.90;;;;;;5139302;27;20210;-70
2022/04/09 06:27:18;;;;;;;14.75;11.63;;;3.20;99.90;;;;;;5139072;27;20565;-71
2022/04/09 06:29:44;;;;;;;13.55;11.23;;;3.30;99.90;;;;;;5139488;27;20569;-71
2022/04/09 06:32:10;;;;;;;14.98;11.10;;;3.30;99.90;;;;;;5139414;27;20227;-71
2022/04/09 06:34:37;;;;;;;15.23;12.18;;;3.30;99.90;;;;;;5118812;27;20648;-71
2022/04/09 06:37:04;;;;;;;13.73;11.32;;;3.40;99.90;;;;;;5120541;27;20596;-70
2022/04/09 06:39:31;;;;;;;15.55;12.32;;;3.40;99.90;;;;;;5120673;27;20538;-70
2022/04/09 06:41:58;;;;;;;16.63;11.35;;;3.40;99.90;;;;;;5138988;27;20209;-71
2022/04/09 06:44:25;;;;;;;17.95;12.45;;;3.40;99.90;;;;;;5139654;27;20209;-70
2022/04/09 06:46:52;;;;;;;18.10;10.52;;;3.50;99.90;;;;;;5139947;27;20198;-70
2022/04/09 06:49:18;;;;;;;17.60;10.95;;;3.60;99.90;;;;;;5119931;27;20208;-70
2022/04/09 06:51:45;;;;;;;14.65;11.05;;;3.80;99.90;;;;;;5137807;27;20212;-70
2022/04/09 06:54:11;;;;;;;17.63;11.73;;;3.80;99.90;;;;;;5120785;27;20266;-70
2022/04/09 06:56:38;;;;;;;13.77;12.20;;;3.80;99.90;;;;;;5139135;27;20229;-70
2022/04/09 06:59:04;;;;;;;13.52;11.27;;;3.90;99.90;;;;;;5103024;27;20547;-70
2022/04/09 07:01:31;;;;;;;13.73;9.65;;;3.80;99.90;;;;;;5138892;27;20727;-70
2022/04/09 07:03:57;;;;;;;17.95;11.20;;;3.90;99.90;;;;;;5139301;27;20194;-70
2022/04/09 07:06:24;;;;;;;17.10;11.23;;;3.90;99.90;;;;;;5138473;27;20224;-70
2022/04/09 07:08:50;;;;;;;11.68;10.18;;;3.90;99.90;;;;;;5120037;27;20252;-70
2022/04/09 07:11:17;;;;;;;12.57;10.63;;;4.00;99.90;;;;;;5121059;27;20209;-71
2022/04/09 07:13:44;;;;;;;17.05;10.38;;;4.00;99.90;;;;;;5120073;27;20680;-70
2022/04/09 07:16:10;;;;;;;13.32;10.68;;;4.10;99.90;;;;;;5121084;27;20222;-70
2022/04/09 07:18:37;;;;;;;15.95;10.27;;;4.10;99.90;;;;;;5139377;27;20201;-70
2022/04/09 07:21:04;;;;;;;12.43;10.13;;;4.20;99.90;;;;;;5120865;27;20194;-70
2022/04/09 07:23:30;;;;;;;12.30;9.73;;;4.30;99.90;;;;;;5138861;27;20197;-70
2022/04/09 07:25:57;;;;;;;13.63;8.50;;;4.40;99.90;;;;;;5103760;27;20730;-70
2022/04/09 07:28:23;;;;;;;12.40;9.48;;;4.40;99.90;;;;;;5138975;27;20209;-71
2022/04/09 07:30:50;;;;;;;11.10;8.90;;;4.40;99.90;;;;;;5138118;27;20197;-71
2022/04/09 07:33:16;;;;;;;14.25;8.50;;;4.40;99.90;;;;;;5139045;27;20657;-71
2022/04/09 07:35:43;;;;;;;14.48;8.95;;;4.50;99.90;;;;;;5138005;27;20218;-71
2022/04/09 07:38:09;;;;;;;10.65;8.80;;;4.60;99.90;;;;;;5121359;27;20201;-71
2022/04/09 07:40:36;;;;;;;13.90;9.75;;;4.70;99.90;;;;;;5120047;27;20610;-71
2022/04/09 07:43:03;;;;;;;9.77;7.60;;;4.80;99.90;;;;;;5138810;27;20198;-71
2022/04/09 07:45:30;;;;;;;17.15;8.23;;;4.70;99.90;;;;;;5138189;27;20194;-71
2022/04/09 07:47:59;;;;;;;10.15;7.97;;;4.80;99.90;;;;;;5119166;27;20672;-71
2022/04/09 07:50:27;;;;;;;9.32;7.57;;;4.90;99.90;;;;;;5138514;27;20790;-71
2022/04/09 07:52:54;;;;;;;15.18;6.75;;;5.10;99.90;;;;;;5138295;27;20201;-71
2022/04/09 07:55:21;;;;;;;8.43;7.45;;;5.00;99.90;;;;;;5103696;27;20202;-71
2022/04/09 07:57:54;;;;;;;10.43;7.32;;;5.20;99.90;;;;;;5137913;27;20229;-71
2022/04/09 08:00:23;;;;;;;10.57;7.30;;;5.20;99.90;;;;;;5137796;27;20258;-71
2022/04/09 08:02:49;;;;;;;11.52;7.45;;;5.20;99.90;;;;;;5119838;27;20284;-71
2022/04/09 08:05:18;;;;;;;9.57;6.80;;;5.30;99.90;;;;;;5103262;27;20194;-71
2022/04/09 08:07:46;;;;;;;11.25;6.45;;;5.20;99.90;;;;;;5137684;27;20202;-71
2022/04/09 08:10:12;;;;;;;11.10;6.50;;;5.10;99.90;;;;;;5137077;27;20772;-72
2022/04/09 08:12:39;;;;;;;13.02;6.10;;;5.30;99.90;;;;;;5136783;27;20634;-70
2022/04/09 08:15:07;;;;;;;11.20;6.40;;;5.60;99.90;;;;;;5136901;27;20213;-70
2022/04/09 08:17:36;;;;;;;12.88;5.47;;;5.60;99.90;;;;;;5119264;27;20217;-70
2022/04/09 08:20:03;;;;;;;6.53;5.88;;;5.70;99.90;;;;;;5137384;27;20558;-70
2022/04/09 08:22:31;;;;;;;6.28;5.47;;;5.70;99.90;;;;;;5136099;27;20201;-70
2022/04/09 08:24:58;;;;;;;8.50;4.85;;;5.70;99.90;;;;;;5136976;27;20201;-70
2022/04/09 08:27:24;;;;;;;9.00;5.55;;;5.90;99.90;;;;;;5136577;27;20212;-70
2022/04/09 08:29:51;;;;;;;9.18;5.90;;;5.80;99.90;;;;;;5117933;28;20197;-70
2022/04/09 08:32:18;;;;;;;12.75;6.18;;;6.10;99.90;;;;;;5137262;27;20285;-70
2022/04/09 08:34:45;;;;;;;9.88;5.60;;;6.10;99.90;;;;;;5118325;27;20209;-70
2022/04/09 08:37:12;;;;;;;10.63;5.47;;;6.00;99.90;;;;;;5117515;27;20570;-70
2022/04/09 08:39:38;;;;;;;9.48;6.78;;;6.00;99.90;;;;;;5136482;27;20275;-70
2022/04/09 08:42:05;;;;;;;10.73;5.28;;;5.90;99.90;;;;;;5135808;27;20194;-70
2022/04/09 08:44:33;;;;;;;13.57;5.50;;;6.10;99.90;;;;;;5100755;28;20201;-70
2022/04/09 08:47:00;;;;;;;12.95;5.25;;;6.20;99.90;;;;;;5136983;27;20206;-70
2022/04/09 08:49:29;;;;;;;8.73;5.40;;;6.00;99.90;;;;;;5137082;27;20288;-70
2022/04/09 08:51:56;;;;;;;10.50;5.65;;;6.20;99.90;;;;;;5137396;28;20212;-70
2022/04/09 08:54:23;;;;;;;8.70;6.15;;;6.40;99.90;;;;;;5118228;28;20638;-70
2022/04/09 08:56:50;;;;;;;7.15;5.25;;;6.50;99.90;;;;;;5136884;27;20228;-69
2022/04/09 08:59:17;;;;;;;9.95;6.22;;;6.50;99.90;;;;;;5140294;27;20198;-70
2022/04/09 09:01:43;;;;;;;8.88;6.20;;;6.60;99.90;;;;;;5140603;27;20201;-70
2022/04/09 09:04:10;;;;;;;16.23;4.53;;;6.70;99.90;;;;;;5121476;27;20260;-70
2022/04/09 09:06:40;;;;;;;10.90;5.13;;;6.90;99.90;;;;;;5140629;27;20218;-70
2022/04/09 09:09:08;;;;;;;8.15;6.15;;;6.50;99.90;;;;;;5140358;27;20651;-70
2022/04/09 09:11:46;;;;;;;8.85;5.53;;;6.40;99.90;;;;;;5140088;27;20202;-70
2022/04/09 09:14:30;;;;;;;8.95;5.75;;;6.70;99.90;;;;;;5139858;27;20190;-70
2022/04/09 09:17:00;;;;;;;10.73;5.03;;;6.70;99.90;;;;;;5139999;27;20594;-70
2022/04/09 09:19:41;;;;;;;9.15;5.32;;;6.80;99.90;;;;;;5140678;27;20182;-70
2022/04/09 09:22:08;;;;;;;5.82;4.35;;;6.80;99.90;;;;;;5141499;27;20198;-70
2022/04/09 09:24:35;;;;;;;16.08;5.30;;;6.80;99.90;;;;;;5122964;27;20198;-70
2022/04/09 09:27:03;;;;;;;6.78;4.80;;;6.90;99.90;;;;;;5141993;27;20250;-70
2022/04/09 09:29:31;;;;;;;8.80;4.90;;;7.00;99.90;;;;;;5123908;27;20281;-70
2022/04/09 09:32:01;;;;;;;8.35;4.85;;;7.00;99.90;;;;;;5124133;27;20713;-69
2022/04/09 09:34:28;;;;;;;14.13;4.43;;;6.90;99.90;;;;;;5140902;27;20198;-70
2022/04/09 09:36:55;;;;;;;10.85;5.57;;;7.10;99.90;;;;;;5141176;27;20214;-68
2022/04/09 09:39:24;;;;;;;4.90;4.35;;;7.30;99.90;;;;;;5141016;27;20258;-69
2022/04/09 09:41:55;;;;;;;10.18;4.47;;;7.30;99.90;;;;;;5122783;27;20198;-68
2022/04/09 09:44:25;;;;;;;9.80;4.50;;;7.60;99.90;;;;;;5139954;27;20416;-70
2022/04/09 09:46:54;;;;;;;11.55;4.97;;;7.70;99.90;;;;;;5121849;27;20263;-69
2022/04/09 09:49:24;;;;;;;8.00;4.65;;;8.00;99.90;;;;;;5141052;27;20202;-70
2022/04/09 09:52:08;;;;;;;11.30;4.65;;;7.50;99.90;;;;;;5140701;27;20198;-69
2022/04/09 09:54:56;;;;;;;8.93;4.10;;;7.70;99.90;;;;;;5140862;27;20215;-69
2022/04/09 09:57:24;;;;;;;13.63;4.78;;;7.80;99.90;;;;;;5140779;27;20565;-69
2022/04/09 09:59:53;;;;;;;11.82;5.25;;;7.80;99.90;;;;;;5139832;27;20202;-69
2022/04/09 10:02:21;;;;;;;7.55;4.60;;;7.80;99.90;;;;;;5138849;27;20190;-70
2022/04/09 10:04:48;;;;;;;6.22;4.68;;;7.60;99.90;;;;;;5140297;27;20190;-70
2022/04/09 10:07:15;;;;;;;8.20;4.18;;;7.40;99.90;;;;;;5138633;27;20221;-70
2022/04/09 10:09:42;;;;;;;14.48;6.20;;;7.20;99.90;;;;;;5138932;27;20565;-70
2022/04/09 10:12:25;;;;;;;6.55;3.40;;;7.30;99.90;;;;;;5121757;27;20202;-70
2022/04/09 10:14:57;;;;;;;12.68;5.25;;;7.30;99.90;;;;;;5140263;27;20202;-70
2022/04/09 10:17:24;;;;;;;5.22;4.20;;;7.10;99.90;;;;;;5139252;27;20218;-70
2022/04/09 10:19:59;;;;;;;5.63;4.00;;;7.20;99.90;;;;;;5139564;27;20198;-70
2022/04/09 10:22:31;;;;;;;9.07;3.47;;;7.60;99.90;;;;;;5139812;27;20237;-70
2022/04/09 10:24:59;;;;;;;5.82;3.70;;;7.50;99.90;;;;;;5139096;27;20175;-70
2022/04/09 10:27:44;;;;;;;8.07;4.07;;;7.80;99.90;;;;;;5137463;27;20202;-70
2022/04/09 10:30:20;;;;;;;5.22;3.60;;;7.70;99.90;;;;;;5138360;27;20583;-70
2022/04/09 10:32:51;;;;;;;12.18;4.35;;;7.70;99.90;;;;;;5138093;27;20205;-69
2022/04/09 10:35:44;;;;;;;5.88;3.80;;;7.80;99.90;;;;;;5137468;27;20201;-69
2022/04/09 10:38:10;;;;;;;8.05;4.70;;;8.20;99.90;;;;;;5139753;27;20217;-69
2022/04/09 10:41:02;;;;;;;6.35;3.35;;;8.20;99.90;;;;;;5138277;27;20232;-69
2022/04/09 10:43:39;;;;;;;9.38;4.03;;;8.40;99.90;;;;;;5138921;27;20205;-69
2022/04/09 10:46:06;;;;;;;6.97;4.40;;;8.60;99.90;;;;;;5138296;27;20197;-69
2022/04/09 10:48:34;;;;;;;7.32;4.10;;;8.50;99.90;;;;;;5139014;27;20216;-69
2022/04/09 10:51:08;;;;;;;7.82;3.60;;;8.80;99.90;;;;;;5119395;27;20672;-69
2022/04/09 10:53:36;;;;;;;10.60;3.95;;;9.00;99.90;;;;;;5137625;27;20613;-70
2022/04/09 10:56:15;;;;;;;6.25;4.05;;;9.10;99.90;;;;;;5138037;27;20209;-70
2022/04/09 10:59:08;;;;;;;3.83;3.50;;;9.20;99.90;;;;;;5137985;27;20193;-69
2022/04/09 11:01:46;;;;;;;3.05;2.83;;;9.40;99.90;;;;;;5120157;27;20254;-69
2022/04/09 11:07:01;;;;;;;9.85;4.22;;;9.20;99.90;;;;;;5138717;27;20307;-70
2022/04/09 11:09:45;;;;;;;5.10;3.88;;;9.40;99.90;;;;;;5140079;27;20237;-70
2022/04/09 11:12:12;;;;;;;6.22;4.75;;;8.70;99.90;;;;;;5139896;27;20201;-69
2022/04/09 11:14:49;;;;;;;6.82;4.22;;;8.80;99.90;;;;;;5138764;27;20225;-69
2022/04/09 11:17:22;;;;;;;4.47;3.83;;;9.40;99.90;;;;;;5139254;27;20227;-69
2022/04/09 11:19:49;;;;;;;6.00;5.50;;;10.10;99.90;;;;;;5139464;27;20212;-69
2022/04/09 11:22:16;;;;;;;8.10;4.60;;;10.70;99.90;;;;;;5086935;27;20206;-70
2022/04/09 11:24:42;;;;;;;7.03;4.55;;;10.60;99.90;;;;;;5139397;27;20212;-70
2022/04/09 11:27:12;;;;;;;5.20;4.70;;;10.20;99.90;;;;;;5139269;27;20338;-69
2022/04/09 11:29:41;;;;;;;7.05;5.18;;;9.30;99.90;;;;;;5138883;27;20645;-70
2022/04/09 11:32:18;;;;;;;7.50;4.45;;;9.90;99.90;;;;;;5139147;27;20538;-69
2022/04/09 11:34:48;;;;;;;5.60;4.43;;;10.40;99.90;;;;;;5139156;27;20197;-69
2022/04/09 11:37:15;;;;;;;5.57;5.07;;;9.40;99.90;;;;;;5139988;27;20214;-70
2022/04/09 11:39:43;;;;;;;5.85;5.45;;;10.30;99.90;;;;;;5139794;27;20201;-69
2022/04/09 11:42:10;;;;;;;8.67;4.93;;;10.60;99.90;;;;;;5139172;27;20568;-70
2022/04/09 11:44:40;;;;;;;9.83;5.40;;;11.40;99.90;;;;;;5139924;27;20611;-70
2022/04/09 11:47:08;;;;;;;9.90;5.80;;;10.90;99.90;;;;;;5120693;27;20615;-70
2022/04/09 11:49:35;;;;;;;10.50;5.60;;;10.90;99.90;;;;;;5139093;27;20698;-70
2022/04/09 11:52:04;;;;;;;8.80;5.20;;;10.60;99.90;;;;;;5138608;27;20612;-70
2022/04/09 11:54:43;;;;;;;8.68;5.55;;;10.00;99.90;;;;;;5119621;27;20612;-69
2022/04/09 11:57:11;;;;;;;6.00;4.95;;;9.50;99.90;;;;;;5138520;27;20232;-69
2022/04/09 11:59:38;;;;;;;6.47;4.55;;;8.70;99.90;;;;;;5137991;27;20201;-71
2022/04/09 12:02:19;;;;;;;7.38;5.10;;;8.80;99.90;;;;;;5138834;27;20197;-69
2022/04/09 12:04:46;;;;;;;6.25;5.60;;;8.50;99.90;;;;;;5138808;27;20205;-70
2022/04/09 12:07:13;;;;;;;7.40;5.55;;;8.80;99.90;;;;;;5138420;27;20233;-70
2022/04/09 12:09:39;;;;;;;9.50;5.93;;;9.70;99.90;;;;;;5139223;27;20237;-71
2022/04/09 12:12:07;;;;;;;7.07;6.10;;;10.30;99.90;;;;;;5138706;27;20208;-70
2022/04/09 12:14:34;;;;;;;8.10;6.27;;;11.10;99.90;;;;;;5137523;27;20570;-70
2022/04/09 12:17:15;;;;;;;6.55;5.85;;;11.20;99.90;;;;;;5137899;27;20643;-70
2022/04/09 12:19:45;;;;;;;5.53;5.00;;;10.40;99.90;;;;;;5137913;27;20182;-70
2022/04/09 12:22:17;;;;;;;7.13;6.13;;;9.60;99.90;;;;;;5137702;27;20205;-69
2022/04/09 12:24:47;;;;;;;6.57;6.05;;;10.10;99.90;;;;;;5136793;27;20205;-70
2022/04/09 12:27:14;;;;;;;8.50;5.80;;;10.70;99.90;;;;;;5136570;27;20206;-70
2022/04/09 12:29:48;;;;;;;7.10;6.40;;;11.30;99.90;;;;;;5137237;27;20217;-70
2022/04/09 12:32:33;;;;;;;7.23;6.63;;;11.70;99.90;;;;;;5118795;27;20566;-70
2022/04/09 12:35:10;;;;;;;6.40;5.90;;;11.40;99.90;;;;;;5137426;27;20695;-70
2022/04/09 12:37:50;;;;;;;7.40;6.67;;;11.50;99.90;;;;;;5136570;27;20711;-71
2022/04/09 12:40:18;;;;;;;7.63;6.87;;;10.70;99.90;;;;;;5135873;27;20614;-70
2022/04/09 12:42:46;;;;;;;6.70;6.10;;;11.10;99.90;;;;;;5137094;27;20604;-70
2022/04/09 12:45:24;;;;;;;6.27;5.60;;;10.90;99.90;;;;;;5137712;27;20619;-70
2022/04/09 12:48:05;;;;;;;8.00;7.27;;;11.90;99.90;;;;;;5137800;27;20627;-70
2022/04/09 12:50:33;;;;;;;7.37;6.80;;;12.50;99.90;;;;;;5119120;28;20627;-70
2022/04/09 12:53:01;;;;;;;7.43;6.60;;;13.20;99.90;;;;;;5137416;28;20608;-70
2022/04/09 12:55:30;;;;;;;6.67;6.10;;;13.20;99.90;;;;;;5136946;28;20604;-70
2022/04/09 12:57:58;;;;;;;7.57;6.50;;;13.70;99.90;;;;;;5136944;28;21002;-70
2022/04/09 13:00:27;;;;;;;6.50;6.10;;;12.60;99.90;;;;;;5136277;28;20610;-70